sensor_id;sensor_type;location;lat;lon;timestamp;P1;durP1;ratioP1;P2;durP2;ratioP2
1206;SDS011;593;53.184;8.216;2024-02-21T00:00:49;19.30;;;12.43;;
1206;SDS011;593;53.184;8.216;2024-02-21T00:03:15;20.90;;;13.70;;
1206;SDS011;593;53.184;8.216;2024-02-21T00:05:40;20.20;;;12.83;;
1206;SDS011;593;53.184;8.216;2024-02-21T00:08:06;25.23;;;14.90;;
1206;SDS011;593;53.184;8.216;2024-02-21T00:10:31;24.03;;;13.90;;
1206;SDS011;593;53.184;8.216;2024-02-21T00:12:57;27.77;;;15.80;;
1206;SDS011;593;53.184;8.216;2024-02-21T00:15:24;26.47;;;15.57;;
1206;SDS011;593;53.184;8.216;2024-02-21T00:17:50;26.10;;;15.60;;
1206;SDS011;593;53.184;8.216;2024-02-21T00:20:16;25.23;;;13.70;;
1206;SDS011;593;53.184;8.216;2024-02-21T00:22:41;25.10;;;16.73;;
1206;SDS011;593;53.184;8.216;2024-02-21T00:25:06;24.03;;;15.00;;
1206;SDS011;593;53.184;8.216;2024-02-21T00:27:33;22.38;;;14.45;;
1206;SDS011;593;53.184;8.216;2024-02-21T00:29:58;21.87;;;16.20;;
1206;SDS011;593;53.184;8.216;2024-02-21T00:32:23;30.47;;;16.47;;
1206;SDS011;593;53.184;8.216;2024-02-21T00:34:49;27.93;;;18.00;;
1206;SDS011;593;53.184;8.216;2024-02-21T00:37:14;23.67;;;17.57;;
1206;SDS011;593;53.184;8.216;2024-02-21T00:39:40;26.50;;;17.43;;
1206;SDS011;593;53.184;8.216;2024-02-21T00:42:05;24.10;;;17.33;;
1206;SDS011;593;53.184;8.216;2024-02-21T00:44:32;23.10;;;15.87;;
1206;SDS011;593;53.184;8.216;2024-02-21T00:46:57;23.30;;;15.20;;
1206;SDS011;593;53.184;8.216;2024-02-21T00:49:26;29.00;;;16.63;;
1206;SDS011;593;53.184;8.216;2024-02-21T00:51:52;23.17;;;16.35;;
1206;SDS011;593;53.184;8.216;2024-02-21T00:54:17;22.50;;;16.03;;
1206;SDS011;593;53.184;8.216;2024-02-21T00:56:42;24.43;;;14.70;;
1206;SDS011;593;53.184;8.216;2024-02-21T00:59:08;21.63;;;15.73;;
1206;SDS011;593;53.184;8.216;2024-02-21T01:01:33;21.40;;;15.53;;
1206;SDS011;593;53.184;8.216;2024-02-21T01:03:59;20.87;;;13.93;;
1206;SDS011;593;53.184;8.216;2024-02-21T01:06:25;19.67;;;14.90;;
1206;SDS011;593;53.184;8.216;2024-02-21T01:08:50;20.57;;;14.00;;
1206;SDS011;593;53.184;8.216;2024-02-21T01:11:16;21.47;;;15.17;;
1206;SDS011;593;53.184;8.216;2024-02-21T01:13:41;20.53;;;13.93;;
1206;SDS011;593;53.184;8.216;2024-02-21T01:16:07;17.47;;;14.03;;
1206;SDS011;593;53.184;8.216;2024-02-21T01:18:37;18.60;;;13.63;;
1206;SDS011;593;53.184;8.216;2024-02-21T01:21:02;22.97;;;13.90;;
1206;SDS011;593;53.184;8.216;2024-02-21T01:23:32;23.83;;;13.85;;
1206;SDS011;593;53.184;8.216;2024-02-21T01:26:00;24.53;;;14.93;;
1206;SDS011;593;53.184;8.216;2024-02-21T01:28:25;22.90;;;13.17;;
1206;SDS011;593;53.184;8.216;2024-02-21T01:30:51;21.03;;;13.20;;
1206;SDS011;593;53.184;8.216;2024-02-21T01:33:17;19.73;;;13.07;;
1206;SDS011;593;53.184;8.216;2024-02-21T01:35:42;20.47;;;13.30;;
1206;SDS011;593;53.184;8.216;2024-02-21T01:38:08;22.00;;;13.23;;
1206;SDS011;593;53.184;8.216;2024-02-21T01:40:33;15.83;;;13.20;;
1206;SDS011;593;53.184;8.216;2024-02-21T01:42:58;23.03;;;13.77;;
1206;SDS011;593;53.184;8.216;2024-02-21T01:45:24;21.60;;;13.97;;
1206;SDS011;593;53.184;8.216;2024-02-21T01:47:49;17.47;;;12.57;;
1206;SDS011;593;53.184;8.216;2024-02-21T01:50:15;22.70;;;13.87;;
1206;SDS011;593;53.184;8.216;2024-02-21T01:52:42;17.63;;;15.60;;
1206;SDS011;593;53.184;8.216;2024-02-21T01:55:10;22.90;;;12.50;;
1206;SDS011;593;53.184;8.216;2024-02-21T01:57:38;17.53;;;13.50;;
1206;SDS011;593;53.184;8.216;2024-02-21T02:00:04;19.00;;;13.17;;
1206;SDS011;593;53.184;8.216;2024-02-21T02:02:31;24.30;;;13.40;;
1206;SDS011;593;53.184;8.216;2024-02-21T02:04:56;18.37;;;12.37;;
1206;SDS011;593;53.184;8.216;2024-02-21T02:07:25;19.03;;;12.90;;
1206;SDS011;593;53.184;8.216;2024-02-21T02:09:50;19.50;;;12.17;;
1206;SDS011;593;53.184;8.216;2024-02-21T02:12:15;18.77;;;12.40;;
1206;SDS011;593;53.184;8.216;2024-02-21T02:14:41;19.90;;;14.03;;
1206;SDS011;593;53.184;8.216;2024-02-21T02:17:09;23.03;;;13.23;;
1206;SDS011;593;53.184;8.216;2024-02-21T02:19:35;17.75;;;12.27;;
1206;SDS011;593;53.184;8.216;2024-02-21T02:22:05;22.07;;;13.20;;
1206;SDS011;593;53.184;8.216;2024-02-21T02:24:39;20.00;;;12.67;;
1206;SDS011;593;53.184;8.216;2024-02-21T02:27:04;19.13;;;13.43;;
1206;SDS011;593;53.184;8.216;2024-02-21T02:29:31;18.73;;;12.00;;
1206;SDS011;593;53.184;8.216;2024-02-21T02:31:57;19.87;;;12.73;;
1206;SDS011;593;53.184;8.216;2024-02-21T02:34:23;16.50;;;11.60;;
1206;SDS011;593;53.184;8.216;2024-02-21T02:36:48;14.70;;;12.03;;
1206;SDS011;593;53.184;8.216;2024-02-21T02:39:14;13.40;;;10.33;;
1206;SDS011;593;53.184;8.216;2024-02-21T02:41:39;17.00;;;12.27;;
1206;SDS011;593;53.184;8.216;2024-02-21T02:44:05;18.13;;;12.00;;
1206;SDS011;593;53.184;8.216;2024-02-21T02:46:30;15.57;;;11.33;;
1206;SDS011;593;53.184;8.216;2024-02-21T02:48:56;17.47;;;11.90;;
1206;SDS011;593;53.184;8.216;2024-02-21T02:51:21;17.47;;;11.50;;
1206;SDS011;593;53.184;8.216;2024-02-21T02:53:46;20.33;;;10.93;;
1206;SDS011;593;53.184;8.216;2024-02-21T02:56:15;23.07;;;12.83;;
1206;SDS011;593;53.184;8.216;2024-02-21T02:58:41;18.15;;;11.75;;
1206;SDS011;593;53.184;8.216;2024-02-21T03:01:08;22.15;;;12.02;;
1206;SDS011;593;53.184;8.216;2024-02-21T03:03:33;16.53;;;10.93;;
1206;SDS011;593;53.184;8.216;2024-02-21T03:05:59;15.33;;;10.87;;
1206;SDS011;593;53.184;8.216;2024-02-21T03:08:24;17.33;;;10.47;;
1206;SDS011;593;53.184;8.216;2024-02-21T03:10:49;20.73;;;12.67;;
1206;SDS011;593;53.184;8.216;2024-02-21T03:13:15;15.70;;;11.90;;
1206;SDS011;593;53.184;8.216;2024-02-21T03:15:40;18.83;;;11.80;;
1206;SDS011;593;53.184;8.216;2024-02-21T03:18:06;17.80;;;11.67;;
1206;SDS011;593;53.184;8.216;2024-02-21T03:20:31;15.63;;;11.60;;
1206;SDS011;593;53.184;8.216;2024-02-21T03:22:57;18.23;;;11.23;;
1206;SDS011;593;53.184;8.216;2024-02-21T03:25:22;14.30;;;10.53;;
1206;SDS011;593;53.184;8.216;2024-02-21T03:27:48;15.23;;;11.70;;
1206;SDS011;593;53.184;8.216;2024-02-21T03:30:13;16.77;;;11.60;;
1206;SDS011;593;53.184;8.216;2024-02-21T03:32:39;19.53;;;12.07;;
1206;SDS011;593;53.184;8.216;2024-02-21T03:35:04;14.10;;;11.73;;
1206;SDS011;593;53.184;8.216;2024-02-21T03:37:30;19.90;;;12.37;;
1206;SDS011;593;53.184;8.216;2024-02-21T03:39:55;21.10;;;11.80;;
1206;SDS011;593;53.184;8.216;2024-02-21T03:42:21;15.10;;;11.20;;
1206;SDS011;593;53.184;8.216;2024-02-21T03:44:46;15.13;;;10.73;;
1206;SDS011;593;53.184;8.216;2024-02-21T03:47:12;17.90;;;11.97;;
1206;SDS011;593;53.184;8.216;2024-02-21T03:49:37;15.60;;;11.20;;
1206;SDS011;593;53.184;8.216;2024-02-21T03:52:03;20.47;;;10.67;;
1206;SDS011;593;53.184;8.216;2024-02-21T03:54:29;18.53;;;10.70;;
1206;SDS011;593;53.184;8.216;2024-02-21T03:56:54;15.13;;;11.40;;
1206;SDS011;593;53.184;8.216;2024-02-21T03:59:20;15.43;;;10.50;;
1206;SDS011;593;53.184;8.216;2024-02-21T04:01:45;16.63;;;9.75;;
1206;SDS011;593;53.184;8.216;2024-02-21T04:04:11;12.17;;;10.27;;
1206;SDS011;593;53.184;8.216;2024-02-21T04:06:36;18.73;;;9.63;;
1206;SDS011;593;53.184;8.216;2024-02-21T04:09:02;11.07;;;9.40;;
1206;SDS011;593;53.184;8.216;2024-02-21T04:11:27;14.17;;;8.60;;
1206;SDS011;593;53.184;8.216;2024-02-21T04:13:53;13.07;;;10.10;;
1206;SDS011;593;53.184;8.216;2024-02-21T04:16:18;12.90;;;9.40;;
1206;SDS011;593;53.184;8.216;2024-02-21T04:18:43;15.47;;;10.70;;
1206;SDS011;593;53.184;8.216;2024-02-21T04:21:09;9.87;;;7.80;;
1206;SDS011;593;53.184;8.216;2024-02-21T04:23:35;11.55;;;9.30;;
1206;SDS011;593;53.184;8.216;2024-02-21T04:26:00;9.40;;;7.23;;
1206;SDS011;593;53.184;8.216;2024-02-21T04:28:26;9.97;;;6.93;;
1206;SDS011;593;53.184;8.216;2024-02-21T04:30:51;9.00;;;7.83;;
1206;SDS011;593;53.184;8.216;2024-02-21T04:33:17;10.73;;;6.93;;
1206;SDS011;593;53.184;8.216;2024-02-21T04:35:43;11.17;;;7.90;;
1206;SDS011;593;53.184;8.216;2024-02-21T04:38:08;8.70;;;6.20;;
1206;SDS011;593;53.184;8.216;2024-02-21T04:40:34;11.10;;;8.73;;
1206;SDS011;593;53.184;8.216;2024-02-21T04:42:59;8.90;;;7.37;;
1206;SDS011;593;53.184;8.216;2024-02-21T04:45:24;9.50;;;7.80;;
1206;SDS011;593;53.184;8.216;2024-02-21T04:47:50;12.20;;;8.10;;
1206;SDS011;593;53.184;8.216;2024-02-21T04:50:15;8.50;;;7.60;;
1206;SDS011;593;53.184;8.216;2024-02-21T04:52:41;10.93;;;6.90;;
1206;SDS011;593;53.184;8.216;2024-02-21T04:55:06;10.60;;;7.57;;
1206;SDS011;593;53.184;8.216;2024-02-21T04:57:32;8.97;;;6.90;;
1206;SDS011;593;53.184;8.216;2024-02-21T04:59:57;10.60;;;6.90;;
1206;SDS011;593;53.184;8.216;2024-02-21T05:02:26;8.80;;;6.23;;
1206;SDS011;593;53.184;8.216;2024-02-21T05:04:52;7.50;;;6.13;;
1206;SDS011;593;53.184;8.216;2024-02-21T05:07:18;9.27;;;6.50;;
1206;SDS011;593;53.184;8.216;2024-02-21T05:09:44;8.13;;;6.23;;
1206;SDS011;593;53.184;8.216;2024-02-21T05:12:10;7.10;;;6.40;;
1206;SDS011;593;53.184;8.216;2024-02-21T05:14:35;9.00;;;5.83;;
1206;SDS011;593;53.184;8.216;2024-02-21T05:17:01;8.70;;;7.40;;
1206;SDS011;593;53.184;8.216;2024-02-21T05:19:26;10.50;;;7.57;;
1206;SDS011;593;53.184;8.216;2024-02-21T05:21:51;8.73;;;6.27;;
1206;SDS011;593;53.184;8.216;2024-02-21T05:24:17;8.73;;;6.90;;
1206;SDS011;593;53.184;8.216;2024-02-21T05:26:42;11.07;;;7.43;;
1206;SDS011;593;53.184;8.216;2024-02-21T05:29:08;10.53;;;6.40;;
1206;SDS011;593;53.184;8.216;2024-02-21T05:34:17;7.83;;;6.57;;
1206;SDS011;593;53.184;8.216;2024-02-21T05:36:43;7.33;;;6.63;;
1206;SDS011;593;53.184;8.216;2024-02-21T05:39:09;7.47;;;6.00;;
1206;SDS011;593;53.184;8.216;2024-02-21T05:41:34;7.17;;;6.00;;
1206;SDS011;593;53.184;8.216;2024-02-21T05:43:59;9.90;;;6.17;;
1206;SDS011;593;53.184;8.216;2024-02-21T05:46:25;6.00;;;5.07;;
1206;SDS011;593;53.184;8.216;2024-02-21T05:48:50;6.80;;;5.63;;
1206;SDS011;593;53.184;8.216;2024-02-21T05:51:16;7.60;;;5.50;;
1206;SDS011;593;53.184;8.216;2024-02-21T05:53:41;7.40;;;5.23;;
1206;SDS011;593;53.184;8.216;2024-02-21T05:56:10;9.50;;;6.33;;
1206;SDS011;593;53.184;8.216;2024-02-21T05:58:36;6.37;;;5.40;;
1206;SDS011;593;53.184;8.216;2024-02-21T06:01:02;6.57;;;5.43;;
1206;SDS011;593;53.184;8.216;2024-02-21T06:03:28;5.80;;;5.20;;
1206;SDS011;593;53.184;8.216;2024-02-21T06:05:54;5.80;;;5.17;;
1206;SDS011;593;53.184;8.216;2024-02-21T06:08:19;6.33;;;5.77;;
1206;SDS011;593;53.184;8.216;2024-02-21T06:10:45;6.30;;;4.60;;
1206;SDS011;593;53.184;8.216;2024-02-21T06:13:10;5.20;;;4.70;;
1206;SDS011;593;53.184;8.216;2024-02-21T06:15:36;5.40;;;4.90;;
1206;SDS011;593;53.184;8.216;2024-02-21T06:18:01;8.10;;;5.00;;
1206;SDS011;593;53.184;8.216;2024-02-21T06:20:27;5.57;;;5.00;;
1206;SDS011;593;53.184;8.216;2024-02-21T06:22:53;5.80;;;5.30;;
1206;SDS011;593;53.184;8.216;2024-02-21T06:25:18;5.77;;;4.33;;
1206;SDS011;593;53.184;8.216;2024-02-21T06:27:46;8.57;;;4.90;;
1206;SDS011;593;53.184;8.216;2024-02-21T06:30:12;6.05;;;5.07;;
1206;SDS011;593;53.184;8.216;2024-02-21T06:32:37;5.30;;;4.87;;
1206;SDS011;593;53.184;8.216;2024-02-21T06:35:03;6.60;;;5.37;;
1206;SDS011;593;53.184;8.216;2024-02-21T06:37:32;7.50;;;5.40;;
1206;SDS011;593;53.184;8.216;2024-02-21T06:39:58;5.97;;;5.03;;
1206;SDS011;593;53.184;8.216;2024-02-21T06:42:24;6.20;;;5.60;;
1206;SDS011;593;53.184;8.216;2024-02-21T06:44:50;6.70;;;5.60;;
1206;SDS011;593;53.184;8.216;2024-02-21T06:47:15;7.10;;;5.37;;
1206;SDS011;593;53.184;8.216;2024-02-21T06:49:48;7.10;;;5.67;;
1206;SDS011;593;53.184;8.216;2024-02-21T06:52:14;8.23;;;6.80;;
1206;SDS011;593;53.184;8.216;2024-02-21T06:54:42;8.17;;;6.40;;
1206;SDS011;593;53.184;8.216;2024-02-21T06:57:07;6.47;;;5.87;;
1206;SDS011;593;53.184;8.216;2024-02-21T06:59:33;7.83;;;6.90;;
1206;SDS011;593;53.184;8.216;2024-02-21T07:01:58;10.30;;;6.80;;
1206;SDS011;593;53.184;8.216;2024-02-21T07:04:25;9.23;;;7.00;;
1206;SDS011;593;53.184;8.216;2024-02-21T07:06:52;6.73;;;5.87;;
1206;SDS011;593;53.184;8.216;2024-02-21T07:09:17;11.43;;;8.10;;
1206;SDS011;593;53.184;8.216;2024-02-21T07:11:42;7.43;;;6.67;;
1206;SDS011;593;53.184;8.216;2024-02-21T07:14:08;11.60;;;7.17;;
1206;SDS011;593;53.184;8.216;2024-02-21T07:16:33;7.77;;;6.23;;
1206;SDS011;593;53.184;8.216;2024-02-21T07:18:59;11.03;;;6.83;;
1206;SDS011;593;53.184;8.216;2024-02-21T07:21:25;8.30;;;7.50;;
1206;SDS011;593;53.184;8.216;2024-02-21T07:23:50;12.20;;;8.47;;
1206;SDS011;593;53.184;8.216;2024-02-21T07:26:16;10.77;;;8.73;;
1206;SDS011;593;53.184;8.216;2024-02-21T07:28:41;12.50;;;8.20;;
1206;SDS011;593;53.184;8.216;2024-02-21T07:31:06;12.90;;;7.93;;
1206;SDS011;593;53.184;8.216;2024-02-21T07:33:32;9.43;;;8.27;;
1206;SDS011;593;53.184;8.216;2024-02-21T07:35:57;10.83;;;9.03;;
1206;SDS011;593;53.184;8.216;2024-02-21T07:38:23;12.20;;;8.57;;
1206;SDS011;593;53.184;8.216;2024-02-21T07:40:48;16.57;;;8.53;;
1206;SDS011;593;53.184;8.216;2024-02-21T07:43:14;13.27;;;9.13;;
1206;SDS011;593;53.184;8.216;2024-02-21T07:45:39;11.03;;;8.23;;
1206;SDS011;593;53.184;8.216;2024-02-21T07:48:05;17.30;;;9.00;;
1206;SDS011;593;53.184;8.216;2024-02-21T07:50:31;18.23;;;9.80;;
1206;SDS011;593;53.184;8.216;2024-02-21T07:52:57;18.73;;;11.07;;
1206;SDS011;593;53.184;8.216;2024-02-21T07:55:23;12.67;;;9.33;;
1206;SDS011;593;53.184;8.216;2024-02-21T07:57:48;15.53;;;10.00;;
1206;SDS011;593;53.184;8.216;2024-02-21T08:00:14;14.10;;;9.57;;
1206;SDS011;593;53.184;8.216;2024-02-21T08:02:45;19.13;;;8.93;;
1206;SDS011;593;53.184;8.216;2024-02-21T08:05:11;16.40;;;9.90;;
1206;SDS011;593;53.184;8.216;2024-02-21T08:07:37;16.65;;;10.60;;
1206;SDS011;593;53.184;8.216;2024-02-21T08:10:03;14.00;;;10.53;;
1206;SDS011;593;53.184;8.216;2024-02-21T08:12:29;16.45;;;11.38;;
1206;SDS011;593;53.184;8.216;2024-02-21T08:14:55;14.90;;;9.30;;
1206;SDS011;593;53.184;8.216;2024-02-21T08:17:20;15.80;;;9.20;;
1206;SDS011;593;53.184;8.216;2024-02-21T08:19:46;14.80;;;10.00;;
1206;SDS011;593;53.184;8.216;2024-02-21T08:22:14;16.20;;;10.37;;
1206;SDS011;593;53.184;8.216;2024-02-21T08:24:40;11.10;;;9.20;;
1206;SDS011;593;53.184;8.216;2024-02-21T08:27:05;15.83;;;9.80;;
1206;SDS011;593;53.184;8.216;2024-02-21T08:29:31;18.20;;;11.40;;
1206;SDS011;593;53.184;8.216;2024-02-21T08:31:56;14.37;;;10.50;;
1206;SDS011;593;53.184;8.216;2024-02-21T08:34:22;17.37;;;11.27;;
1206;SDS011;593;53.184;8.216;2024-02-21T08:36:47;18.30;;;10.70;;
1206;SDS011;593;53.184;8.216;2024-02-21T08:39:13;21.13;;;11.00;;
1206;SDS011;593;53.184;8.216;2024-02-21T08:41:41;15.77;;;11.10;;
1206;SDS011;593;53.184;8.216;2024-02-21T08:44:10;21.57;;;12.97;;
1206;SDS011;593;53.184;8.216;2024-02-21T08:46:36;20.47;;;10.80;;
1206;SDS011;593;53.184;8.216;2024-02-21T08:49:05;18.33;;;10.87;;
1206;SDS011;593;53.184;8.216;2024-02-21T08:51:31;16.63;;;10.57;;
1206;SDS011;593;53.184;8.216;2024-02-21T08:53:56;25.20;;;14.30;;
1206;SDS011;593;53.184;8.216;2024-02-21T08:56:23;19.33;;;11.17;;
1206;SDS011;593;53.184;8.216;2024-02-21T08:58:49;20.47;;;9.97;;
1206;SDS011;593;53.184;8.216;2024-02-21T09:01:15;18.70;;;11.60;;
1206;SDS011;593;53.184;8.216;2024-02-21T09:03:41;20.53;;;12.00;;
1206;SDS011;593;53.184;8.216;2024-02-21T09:06:06;15.33;;;10.80;;
1206;SDS011;593;53.184;8.216;2024-02-21T09:08:33;19.00;;;11.93;;
1206;SDS011;593;53.184;8.216;2024-02-21T09:11:02;15.23;;;9.80;;
1206;SDS011;593;53.184;8.216;2024-02-21T09:13:28;17.90;;;10.47;;
1206;SDS011;593;53.184;8.216;2024-02-21T09:15:54;18.20;;;11.93;;
1206;SDS011;593;53.184;8.216;2024-02-21T09:18:19;18.27;;;11.63;;
1206;SDS011;593;53.184;8.216;2024-02-21T09:20:45;16.00;;;11.53;;
1206;SDS011;593;53.184;8.216;2024-02-21T09:23:10;13.70;;;10.37;;
1206;SDS011;593;53.184;8.216;2024-02-21T09:25:36;24.47;;;11.20;;
1206;SDS011;593;53.184;8.216;2024-02-21T09:28:02;18.30;;;10.60;;
1206;SDS011;593;53.184;8.216;2024-02-21T09:30:28;15.90;;;9.27;;
1206;SDS011;593;53.184;8.216;2024-02-21T09:32:53;18.90;;;11.17;;
1206;SDS011;593;53.184;8.216;2024-02-21T09:35:18;22.63;;;11.70;;
1206;SDS011;593;53.184;8.216;2024-02-21T09:37:44;15.77;;;10.57;;
1206;SDS011;593;53.184;8.216;2024-02-21T09:40:10;19.60;;;10.87;;
1206;SDS011;593;53.184;8.216;2024-02-21T09:42:39;18.73;;;10.10;;
1206;SDS011;593;53.184;8.216;2024-02-21T09:45:19;17.13;;;11.53;;
1206;SDS011;593;53.184;8.216;2024-02-21T09:50:30;15.93;;;11.50;;
1206;SDS011;593;53.184;8.216;2024-02-21T09:52:59;14.80;;;10.97;;
1206;SDS011;593;53.184;8.216;2024-02-21T09:55:27;20.70;;;12.50;;
1206;SDS011;593;53.184;8.216;2024-02-21T09:57:57;21.70;;;13.17;;
1206;SDS011;593;53.184;8.216;2024-02-21T10:00:24;18.97;;;12.23;;
1206;SDS011;593;53.184;8.216;2024-02-21T10:02:49;17.27;;;12.60;;
1206;SDS011;593;53.184;8.216;2024-02-21T10:05:15;17.67;;;11.63;;
1206;SDS011;593;53.184;8.216;2024-02-21T10:07:41;18.95;;;12.05;;
1206;SDS011;593;53.184;8.216;2024-02-21T10:10:06;21.53;;;12.43;;
1206;SDS011;593;53.184;8.216;2024-02-21T10:12:32;20.93;;;13.37;;
1206;SDS011;593;53.184;8.216;2024-02-21T10:15:02;18.57;;;12.13;;
1206;SDS011;593;53.184;8.216;2024-02-21T10:17:28;19.50;;;11.85;;
1206;SDS011;593;53.184;8.216;2024-02-21T10:19:53;25.50;;;12.53;;
1206;SDS011;593;53.184;8.216;2024-02-21T10:22:19;16.50;;;12.60;;
1206;SDS011;593;53.184;8.216;2024-02-21T10:24:46;17.13;;;11.60;;
1206;SDS011;593;53.184;8.216;2024-02-21T10:27:11;20.20;;;12.10;;
1206;SDS011;593;53.184;8.216;2024-02-21T10:29:37;13.77;;;10.90;;
1206;SDS011;593;53.184;8.216;2024-02-21T10:32:13;18.23;;;11.50;;
1206;SDS011;593;53.184;8.216;2024-02-21T10:34:40;21.50;;;12.48;;
1206;SDS011;593;53.184;8.216;2024-02-21T10:37:07;23.65;;;11.07;;
1206;SDS011;593;53.184;8.216;2024-02-21T10:39:43;15.00;;;11.85;;
1206;SDS011;593;53.184;8.216;2024-02-21T10:42:12;17.30;;;11.80;;
1206;SDS011;593;53.184;8.216;2024-02-21T10:44:42;16.70;;;10.85;;
1206;SDS011;593;53.184;8.216;2024-02-21T10:47:11;16.65;;;12.15;;
1206;SDS011;593;53.184;8.216;2024-02-21T10:49:42;19.17;;;11.60;;
1206;SDS011;593;53.184;8.216;2024-02-21T10:55:02;15.65;;;11.23;;
1206;SDS011;593;53.184;8.216;2024-02-21T10:57:31;18.50;;;11.80;;
1206;SDS011;593;53.184;8.216;2024-02-21T10:59:56;17.47;;;12.50;;
1206;SDS011;593;53.184;8.216;2024-02-21T11:02:23;16.57;;;11.40;;
1206;SDS011;593;53.184;8.216;2024-02-21T11:04:51;17.90;;;12.33;;
1206;SDS011;593;53.184;8.216;2024-02-21T11:07:19;17.33;;;12.73;;
1206;SDS011;593;53.184;8.216;2024-02-21T11:09:52;17.00;;;11.60;;
1206;SDS011;593;53.184;8.216;2024-02-21T11:12:20;20.33;;;12.75;;
1206;SDS011;593;53.184;8.216;2024-02-21T11:14:46;16.83;;;11.87;;
1206;SDS011;593;53.184;8.216;2024-02-21T11:17:18;18.87;;;12.57;;
1206;SDS011;593;53.184;8.216;2024-02-21T11:19:47;13.63;;;10.30;;
1206;SDS011;593;53.184;8.216;2024-02-21T11:22:19;13.67;;;11.07;;
1206;SDS011;593;53.184;8.216;2024-02-21T11:24:47;14.70;;;10.55;;
1206;SDS011;593;53.184;8.216;2024-02-21T11:29:48;16.00;;;10.57;;
1206;SDS011;593;53.184;8.216;2024-02-21T11:32:19;17.37;;;11.90;;
1206;SDS011;593;53.184;8.216;2024-02-21T11:34:55;17.10;;;11.70;;
1206;SDS011;593;53.184;8.216;2024-02-21T11:37:20;14.53;;;10.57;;
1206;SDS011;593;53.184;8.216;2024-02-21T11:39:46;15.20;;;10.83;;
1206;SDS011;593;53.184;8.216;2024-02-21T11:42:11;16.30;;;10.27;;
1206;SDS011;593;53.184;8.216;2024-02-21T11:44:38;15.73;;;10.50;;
1206;SDS011;593;53.184;8.216;2024-02-21T11:47:04;17.80;;;11.00;;
1206;SDS011;593;53.184;8.216;2024-02-21T11:49:30;16.30;;;10.83;;
1206;SDS011;593;53.184;8.216;2024-02-21T11:52:00;13.17;;;9.87;;
1206;SDS011;593;53.184;8.216;2024-02-21T11:54:29;12.57;;;10.17;;
1206;SDS011;593;53.184;8.216;2024-02-21T11:56:55;16.33;;;11.10;;
1206;SDS011;593;53.184;8.216;2024-02-21T11:59:20;15.00;;;10.33;;
1206;SDS011;593;53.184;8.216;2024-02-21T12:01:46;15.37;;;9.50;;
1206;SDS011;593;53.184;8.216;2024-02-21T12:04:13;13.87;;;9.57;;
1206;SDS011;593;53.184;8.216;2024-02-21T12:06:39;13.97;;;7.83;;
1206;SDS011;593;53.184;8.216;2024-02-21T12:09:07;13.03;;;7.50;;
1206;SDS011;593;53.184;8.216;2024-02-21T12:11:34;12.10;;;8.00;;
1206;SDS011;593;53.184;8.216;2024-02-21T12:14:00;9.30;;;7.70;;
1206;SDS011;593;53.184;8.216;2024-02-21T12:16:30;9.37;;;6.83;;
1206;SDS011;593;53.184;8.216;2024-02-21T12:18:57;7.40;;;6.60;;
1206;SDS011;593;53.184;8.216;2024-02-21T12:21:26;8.33;;;7.27;;
1206;SDS011;593;53.184;8.216;2024-02-21T12:23:54;14.80;;;8.13;;
1206;SDS011;593;53.184;8.216;2024-02-21T12:26:20;7.27;;;6.57;;
1206;SDS011;593;53.184;8.216;2024-02-21T12:28:45;10.23;;;7.93;;
1206;SDS011;593;53.184;8.216;2024-02-21T12:31:11;9.77;;;6.73;;
1206;SDS011;593;53.184;8.216;2024-02-21T12:33:37;10.37;;;7.37;;
1206;SDS011;593;53.184;8.216;2024-02-21T12:36:03;12.57;;;7.80;;
1206;SDS011;593;53.184;8.216;2024-02-21T12:38:29;8.53;;;6.80;;
1206;SDS011;593;53.184;8.216;2024-02-21T12:40:54;10.47;;;6.30;;
1206;SDS011;593;53.184;8.216;2024-02-21T12:43:20;9.03;;;6.23;;
1206;SDS011;593;53.184;8.216;2024-02-21T12:45:47;7.90;;;6.20;;
1206;SDS011;593;53.184;8.216;2024-02-21T12:48:13;9.80;;;6.93;;
1206;SDS011;593;53.184;8.216;2024-02-21T12:50:39;7.00;;;5.47;;
1206;SDS011;593;53.184;8.216;2024-02-21T12:53:16;9.10;;;5.70;;
1206;SDS011;593;53.184;8.216;2024-02-21T12:55:43;6.40;;;5.20;;
1206;SDS011;593;53.184;8.216;2024-02-21T12:58:09;5.70;;;4.60;;
1206;SDS011;593;53.184;8.216;2024-02-21T13:00:35;4.83;;;4.30;;
1206;SDS011;593;53.184;8.216;2024-02-21T13:03:00;7.07;;;5.03;;
1206;SDS011;593;53.184;8.216;2024-02-21T13:05:26;7.03;;;5.07;;
1206;SDS011;593;53.184;8.216;2024-02-21T13:07:52;8.17;;;7.37;;
1206;SDS011;593;53.184;8.216;2024-02-21T13:10:18;7.27;;;5.53;;
1206;SDS011;593;53.184;8.216;2024-02-21T13:12:43;7.80;;;4.83;;
1206;SDS011;593;53.184;8.216;2024-02-21T13:15:09;7.27;;;5.10;;
1206;SDS011;593;53.184;8.216;2024-02-21T13:17:37;6.70;;;4.50;;
1206;SDS011;593;53.184;8.216;2024-02-21T13:20:02;11.60;;;6.03;;
1206;SDS011;593;53.184;8.216;2024-02-21T13:22:28;5.40;;;4.90;;
1206;SDS011;593;53.184;8.216;2024-02-21T13:24:53;10.80;;;6.33;;
1206;SDS011;593;53.184;8.216;2024-02-21T13:27:19;6.23;;;5.50;;
1206;SDS011;593;53.184;8.216;2024-02-21T13:29:44;6.90;;;5.70;;
1206;SDS011;593;53.184;8.216;2024-02-21T13:32:10;7.20;;;4.43;;
1206;SDS011;593;53.184;8.216;2024-02-21T13:34:35;5.90;;;5.30;;
1206;SDS011;593;53.184;8.216;2024-02-21T13:37:01;8.80;;;5.53;;
1206;SDS011;593;53.184;8.216;2024-02-21T13:39:26;5.83;;;4.60;;
1206;SDS011;593;53.184;8.216;2024-02-21T13:41:52;7.27;;;4.80;;
1206;SDS011;593;53.184;8.216;2024-02-21T13:44:17;6.83;;;4.77;;
1206;SDS011;593;53.184;8.216;2024-02-21T13:46:42;6.50;;;5.80;;
1206;SDS011;593;53.184;8.216;2024-02-21T13:49:08;5.67;;;4.63;;
1206;SDS011;593;53.184;8.216;2024-02-21T13:51:33;8.53;;;5.13;;
1206;SDS011;593;53.184;8.216;2024-02-21T13:54:01;6.00;;;5.07;;
1206;SDS011;593;53.184;8.216;2024-02-21T13:56:30;5.73;;;4.63;;
1206;SDS011;593;53.184;8.216;2024-02-21T13:58:57;7.23;;;4.83;;
1206;SDS011;593;53.184;8.216;2024-02-21T14:01:23;4.93;;;4.53;;
1206;SDS011;593;53.184;8.216;2024-02-21T14:03:48;8.60;;;4.43;;
1206;SDS011;593;53.184;8.216;2024-02-21T14:06:14;4.60;;;3.80;;
1206;SDS011;593;53.184;8.216;2024-02-21T14:08:39;6.30;;;4.17;;
1206;SDS011;593;53.184;8.216;2024-02-21T14:11:05;4.87;;;3.93;;
1206;SDS011;593;53.184;8.216;2024-02-21T14:13:32;3.60;;;3.30;;
1206;SDS011;593;53.184;8.216;2024-02-21T14:15:57;3.83;;;3.50;;
1206;SDS011;593;53.184;8.216;2024-02-21T14:18:22;6.33;;;4.80;;
1206;SDS011;593;53.184;8.216;2024-02-21T14:20:48;6.67;;;4.60;;
1206;SDS011;593;53.184;8.216;2024-02-21T14:23:13;6.27;;;4.30;;
1206;SDS011;593;53.184;8.216;2024-02-21T14:25:39;6.60;;;4.63;;
1206;SDS011;593;53.184;8.216;2024-02-21T14:28:05;6.50;;;5.90;;
1206;SDS011;593;53.184;8.216;2024-02-21T14:30:30;8.50;;;7.60;;
1206;SDS011;593;53.184;8.216;2024-02-21T14:32:56;9.33;;;7.37;;
1206;SDS011;593;53.184;8.216;2024-02-21T14:35:24;11.63;;;6.77;;
1206;SDS011;593;53.184;8.216;2024-02-21T14:37:50;10.20;;;8.40;;
1206;SDS011;593;53.184;8.216;2024-02-21T14:40:17;9.20;;;8.20;;
1206;SDS011;593;53.184;8.216;2024-02-21T14:42:44;10.30;;;9.00;;
1206;SDS011;593;53.184;8.216;2024-02-21T14:45:09;12.73;;;9.20;;
1206;SDS011;593;53.184;8.216;2024-02-21T14:47:35;10.37;;;9.20;;
1206;SDS011;593;53.184;8.216;2024-02-21T14:50:02;11.17;;;10.00;;
1206;SDS011;593;53.184;8.216;2024-02-21T14:52:29;11.47;;;10.10;;
1206;SDS011;593;53.184;8.216;2024-02-21T14:54:54;9.83;;;8.80;;
1206;SDS011;593;53.184;8.216;2024-02-21T14:57:20;9.97;;;8.77;;
1206;SDS011;593;53.184;8.216;2024-02-21T14:59:46;10.03;;;7.93;;
1206;SDS011;593;53.184;8.216;2024-02-21T15:02:13;7.40;;;6.70;;
1206;SDS011;593;53.184;8.216;2024-02-21T15:04:39;12.07;;;7.80;;
1206;SDS011;593;53.184;8.216;2024-02-21T15:07:04;7.33;;;5.73;;
1206;SDS011;593;53.184;8.216;2024-02-21T15:09:29;8.00;;;6.97;;
1206;SDS011;593;53.184;8.216;2024-02-21T15:11:55;8.37;;;7.30;;
1206;SDS011;593;53.184;8.216;2024-02-21T15:14:20;8.50;;;7.53;;
1206;SDS011;593;53.184;8.216;2024-02-21T15:16:46;9.73;;;8.73;;